createdAt,value
2023-04-15T00:02:22.192Z,13.50
2023-04-15T00:05:08.608Z,13.50
2023-04-15T00:07:54.786Z,13.50
2023-04-15T00:10:40.732Z,13.50
2023-04-15T00:13:26.942Z,13.40
2023-04-15T00:16:12.900Z,13.40
2023-04-15T00:18:59.274Z,13.40
2023-04-15T00:21:45.242Z,13.40
2023-04-15T00:24:31.739Z,13.40
2023-04-15T00:27:17.782Z,13.40
2023-04-15T00:30:04.288Z,13.40
2023-04-15T00:32:51.378Z,13.40
2023-04-15T00:35:40.649Z,13.50
2023-04-15T00:38:26.389Z,13.40
2023-04-15T00:41:13.825Z,13.40
2023-04-15T00:44:00.913Z,13.40
2023-04-15T00:46:48.255Z,13.30
2023-04-15T00:49:34.381Z,13.30
2023-04-15T00:52:21.894Z,13.30
2023-04-15T00:55:08.784Z,13.30
2023-04-15T00:57:55.671Z,13.30
2023-04-15T01:00:43.061Z,13.30
2023-04-15T01:03:30.562Z,13.20
2023-04-15T01:06:19.899Z,13.30
2023-04-15T01:09:06.375Z,13.30
2023-04-15T01:11:52.874Z,13.20
2023-04-15T01:14:39.468Z,13.20
2023-04-15T01:17:26.154Z,13.20
2023-04-15T01:20:12.835Z,13.30
2023-04-15T01:22:59.245Z,13.30
2023-04-15T01:25:46.704Z,13.30
2023-04-15T01:28:33.022Z,13.30
2023-04-15T01:31:18.881Z,13.30
2023-04-15T01:34:04.886Z,13.30
2023-04-15T01:36:50.557Z,13.30
2023-04-15T01:39:37.321Z,13.20
2023-04-15T01:42:23.353Z,13.20
2023-04-15T01:45:10.058Z,13.20
2023-04-15T01:47:57.579Z,13.20
2023-04-15T01:50:44.038Z,13.20
2023-04-15T01:53:30.177Z,13.20
2023-04-15T01:56:16.976Z,13.20
2023-04-15T01:59:03.855Z,13.20
2023-04-15T02:01:50.038Z,13.20
2023-04-15T02:04:35.667Z,13.20
2023-04-15T02:07:22.167Z,13.10
2023-04-15T02:10:09.452Z,13.10
2023-04-15T02:12:55.299Z,13.10
2023-04-15T02:15:41.348Z,13.10
2023-04-15T02:18:27.453Z,13.00
2023-04-15T02:21:13.920Z,13.00
2023-04-15T02:24:00.068Z,13.00
2023-04-15T02:26:46.831Z,13.00
2023-04-15T02:29:34.343Z,12.90
2023-04-15T02:32:20.785Z,12.90
2023-04-15T02:35:09.150Z,12.90
2023-04-15T02:37:55.828Z,12.80
2023-04-15T02:40:42.356Z,12.70
2023-04-15T02:43:28.038Z,12.70
2023-04-15T02:46:14.919Z,12.70
2023-04-15T02:49:03.103Z,12.70
2023-04-15T02:51:49.867Z,12.70
2023-04-15T02:54:36.050Z,12.70
2023-04-15T02:57:23.272Z,12.70
2023-04-15T03:00:11.520Z,12.60
2023-04-15T03:03:05.673Z,12.60
2023-04-15T03:05:52.221Z,12.60
2023-04-15T03:08:38.630Z,12.60
2023-04-15T03:11:24.825Z,12.60
2023-04-15T03:14:11.281Z,12.60
2023-04-15T03:17:01.936Z,12.60
2023-04-15T03:19:48.303Z,12.60
2023-04-15T03:22:35.052Z,12.60
2023-04-15T03:25:21.921Z,12.50
2023-04-15T03:28:07.579Z,12.50
2023-04-15T03:30:53.910Z,12.50
2023-04-15T03:33:39.993Z,12.50
2023-04-15T03:36:27.418Z,12.50
2023-04-15T03:39:13.965Z,12.50
2023-04-15T03:42:00.344Z,12.50
2023-04-15T03:44:46.522Z,12.50
2023-04-15T03:47:32.633Z,12.50
2023-04-15T03:50:18.236Z,12.40
2023-04-15T03:53:04.392Z,12.40
2023-04-15T03:55:50.384Z,12.40
2023-04-15T03:58:36.366Z,12.40
2023-04-15T04:01:22.858Z,12.40
2023-04-15T04:04:09.263Z,12.40
2023-04-15T04:06:55.891Z,12.40
2023-04-15T04:09:42.182Z,12.40
2023-04-15T04:12:27.911Z,12.40
2023-04-15T04:15:14.654Z,12.40
2023-04-15T04:18:00.505Z,12.30
2023-04-15T04:20:46.915Z,12.30
2023-04-15T04:23:33.439Z,12.30
2023-04-15T04:26:20.279Z,12.20
2023-04-15T04:29:06.526Z,12.20
2023-04-15T04:31:53.131Z,12.20
2023-04-15T04:34:39.361Z,12.10
2023-04-15T04:37:25.147Z,12.10
2023-04-15T04:40:11.970Z,12.10
2023-04-15T04:42:58.010Z,12.00
2023-04-15T04:45:43.660Z,12.00
2023-04-15T04:48:29.605Z,12.00
2023-04-15T04:51:16.158Z,12.00
2023-04-15T04:54:03.703Z,11.90
2023-04-15T04:56:50.668Z,11.90
2023-04-15T04:59:36.641Z,11.80
2023-04-15T05:02:23.790Z,11.80
2023-04-15T05:05:12.224Z,11.80
2023-04-15T05:07:58.345Z,11.80
2023-04-15T05:10:46.030Z,11.90
2023-04-15T05:13:31.937Z,11.90
2023-04-15T05:16:18.631Z,11.90
2023-04-15T05:19:04.495Z,11.90
2023-04-15T05:21:50.106Z,11.90
2023-04-15T05:24:36.087Z,11.90
2023-04-15T05:27:23.139Z,12.00
2023-04-15T05:30:09.659Z,12.00
2023-04-15T05:32:56.791Z,12.00
2023-04-15T05:35:43.437Z,12.00
2023-04-15T05:38:29.141Z,12.00
2023-04-15T05:41:17.771Z,12.10
2023-04-15T05:44:06.813Z,12.10
2023-04-15T05:46:52.711Z,12.10
2023-04-15T05:49:38.971Z,12.20
2023-04-15T05:52:25.297Z,12.20
2023-04-15T05:55:11.085Z,12.30
2023-04-15T05:57:57.477Z,12.30
2023-04-15T06:00:44.040Z,12.30
2023-04-15T06:03:30.720Z,12.30
2023-04-15T06:06:16.211Z,12.40
2023-04-15T06:09:02.351Z,12.40
2023-04-15T06:11:48.138Z,12.40
2023-04-15T06:14:34.785Z,12.40
2023-04-15T06:17:21.217Z,12.50
2023-04-15T06:20:08.733Z,12.50
2023-04-15T06:22:54.579Z,12.50
2023-04-15T06:25:40.548Z,12.60
2023-04-15T06:28:26.464Z,12.60
2023-04-15T06:31:12.901Z,12.70
2023-04-15T06:33:59.799Z,12.70
2023-04-15T06:36:46.167Z,12.70
2023-04-15T06:39:32.295Z,12.70
2023-04-15T06:42:18.375Z,12.80
2023-04-15T06:45:04.735Z,12.80
2023-04-15T06:47:51.129Z,12.90
2023-04-15T06:50:36.651Z,12.90
2023-04-15T06:53:22.965Z,12.90
2023-04-15T06:56:11.021Z,13.00
2023-04-15T06:58:57.410Z,13.00
2023-04-15T07:01:43.446Z,13.10
2023-04-15T07:04:29.699Z,13.10
2023-04-15T07:07:17.612Z,13.20
2023-04-15T07:10:03.635Z,13.20
2023-04-15T07:12:51.212Z,13.20
2023-04-15T07:15:37.232Z,13.30
2023-04-15T07:18:23.530Z,13.40
2023-04-15T07:21:09.572Z,13.50
2023-04-15T07:23:55.370Z,13.50
2023-04-15T07:26:41.893Z,13.50
2023-04-15T07:29:27.572Z,13.60
2023-04-15T07:32:13.060Z,13.60
2023-04-15T07:34:59.823Z,13.70
2023-04-15T07:37:46.593Z,13.80
2023-04-15T07:40:33.544Z,13.90
2023-04-15T07:43:20.947Z,14.00
2023-04-15T07:46:07.020Z,14.10
2023-04-15T07:48:53.320Z,14.20
2023-04-15T07:51:39.096Z,14.40
2023-04-15T07:54:24.959Z,14.50
2023-04-15T07:57:11.340Z,14.60
2023-04-15T07:59:57.186Z,14.70
2023-04-15T08:02:48.871Z,14.80
2023-04-15T08:05:34.715Z,15.00
2023-04-15T08:08:21.330Z,15.10
2023-04-15T08:11:07.144Z,15.20
2023-04-15T08:13:53.130Z,15.40
2023-04-15T08:16:39.217Z,15.50
2023-04-15T08:19:25.329Z,15.60
2023-04-15T08:22:15.834Z,15.70
2023-04-15T08:25:04.979Z,15.80
2023-04-15T08:27:51.057Z,15.90
2023-04-15T08:30:36.844Z,16.00
2023-04-15T08:33:22.827Z,16.10
2023-04-15T08:36:09.289Z,16.20
2023-04-15T08:38:55.232Z,16.20
2023-04-15T08:41:57.002Z,16.20
2023-04-15T08:44:44.940Z,16.30
2023-04-15T08:47:34.760Z,16.30
2023-04-15T08:50:22.061Z,16.30
2023-04-15T08:53:07.823Z,16.30
2023-04-15T08:55:57.640Z,16.40
2023-04-15T08:58:47.701Z,16.50
2023-04-15T09:01:33.656Z,16.60
2023-04-15T09:04:19.670Z,16.70
2023-04-15T09:07:05.686Z,16.80
2023-04-15T09:09:52.558Z,17.00
2023-04-15T09:12:38.897Z,17.20
2023-04-15T09:15:27.680Z,17.30
2023-04-15T09:18:16.485Z,17.50
2023-04-15T09:21:14.291Z,17.60
2023-04-15T09:24:04.163Z,17.70
2023-04-15T09:26:55.508Z,17.80
2023-04-15T09:29:43.328Z,17.90
2023-04-15T09:32:28.802Z,18.00
2023-04-15T09:35:14.670Z,18.00
2023-04-15T09:38:10.212Z,18.10
2023-04-15T09:40:56.587Z,18.30
2023-04-15T09:43:42.810Z,18.40
2023-04-15T09:46:45.438Z,18.50
2023-04-15T09:49:31.385Z,18.60
2023-04-15T09:52:17.192Z,18.70
2023-04-15T09:55:04.456Z,18.80
2023-04-15T09:57:50.699Z,19.00
2023-04-15T10:00:38.090Z,19.10
2023-04-15T10:03:27.739Z,19.20
2023-04-15T10:06:15.189Z,19.30
2023-04-15T10:09:01.846Z,19.40
2023-04-15T10:11:49.953Z,19.50
2023-04-15T10:14:38.886Z,19.50
2023-04-15T10:17:33.834Z,19.50
2023-04-15T10:20:21.452Z,19.50
2023-04-15T10:23:11.526Z,19.50
2023-04-15T10:25:59.910Z,19.40
2023-04-15T10:28:48.387Z,19.40
2023-04-15T10:31:35.973Z,19.40
2023-04-15T10:34:24.492Z,19.30
2023-04-15T10:37:12.269Z,19.30
2023-04-15T10:39:58.380Z,19.30
2023-04-15T10:42:44.531Z,19.30
2023-04-15T10:45:39.217Z,19.30
2023-04-15T10:48:26.083Z,19.40
2023-04-15T10:51:14.659Z,19.40
2023-04-15T10:54:04.233Z,19.40
2023-04-15T10:57:07.177Z,19.50
2023-04-15T10:59:58.935Z,19.50
2023-04-15T11:02:54.296Z,19.60
2023-04-15T11:05:39.818Z,19.70
2023-04-15T11:08:58.886Z,19.70
2023-04-15T11:12:09.982Z,19.80
2023-04-15T11:14:57.438Z,19.90
2023-04-15T11:17:45.281Z,20.00
2023-04-15T11:20:33.014Z,19.90
2023-04-15T11:23:27.612Z,20.00
2023-04-15T11:26:13.948Z,20.00
2023-04-15T11:29:01.643Z,20.10
2023-04-15T11:31:49.797Z,20.10
2023-04-15T11:34:36.260Z,20.20
2023-04-15T11:37:30.174Z,20.20
2023-04-15T11:40:22.698Z,20.30
2023-04-15T11:43:20.801Z,20.30
2023-04-15T11:46:06.930Z,20.20
2023-04-15T11:48:53.009Z,20.20
2023-04-15T11:51:39.512Z,20.10
2023-04-15T11:54:25.466Z,20.00
2023-04-15T11:57:11.360Z,20.00
2023-04-15T11:59:58.345Z,19.90
2023-04-15T12:02:45.095Z,19.80
2023-04-15T12:05:31.882Z,19.80
2023-04-15T12:08:18.055Z,19.70
2023-04-15T12:11:04.731Z,19.70
2023-04-15T12:13:51.451Z,19.70
2023-04-15T12:16:50.058Z,19.60
2023-04-15T12:19:45.479Z,19.60
2023-04-15T12:22:37.882Z,19.50
2023-04-15T12:25:35.467Z,19.40
2023-04-15T12:28:21.281Z,19.40
2023-04-15T12:31:14.670Z,19.30
2023-04-15T12:34:01.268Z,19.30
2023-04-15T12:36:47.725Z,19.20
2023-04-15T12:39:44.868Z,19.20
2023-04-15T12:42:30.949Z,19.10
2023-04-15T12:45:16.640Z,19.10
2023-04-15T12:48:03.019Z,19.00
2023-04-15T12:50:49.572Z,19.00
2023-04-15T12:53:35.968Z,19.00
2023-04-15T12:56:23.339Z,19.00
2023-04-15T12:59:10.602Z,19.00
2023-04-15T13:01:56.329Z,19.00
2023-04-15T13:04:43.148Z,19.00
2023-04-15T13:07:29.585Z,19.00
2023-04-15T13:10:15.950Z,19.00
2023-04-15T13:13:04.223Z,19.10
2023-04-15T13:15:50.840Z,19.10
2023-04-15T13:18:36.903Z,19.10
2023-04-15T13:21:23.068Z,19.10
2023-04-15T13:24:09.942Z,19.10
2023-04-15T13:26:56.259Z,19.00
2023-04-15T13:29:42.117Z,19.00
2023-04-15T13:32:27.932Z,18.90
2023-04-15T13:35:14.928Z,18.90
2023-04-15T13:38:00.624Z,18.90
2023-04-15T13:40:47.024Z,18.80
2023-04-15T13:43:34.971Z,18.80
2023-04-15T13:46:20.763Z,18.70
2023-04-15T13:49:06.886Z,18.60
2023-04-15T13:51:52.463Z,18.50
2023-04-15T13:54:38.751Z,18.40
2023-04-15T13:57:25.856Z,18.40
2023-04-15T14:00:12.297Z,18.30
2023-04-15T14:02:58.721Z,18.30
2023-04-15T14:05:45.872Z,18.20
2023-04-15T14:08:32.247Z,18.20
2023-04-15T14:11:18.241Z,18.10
2023-04-15T14:14:04.241Z,18.10
2023-04-15T14:16:50.720Z,18.00
2023-04-15T14:19:37.189Z,18.00
2023-04-15T14:22:26.108Z,17.90
2023-04-15T14:25:17.500Z,17.80
2023-04-15T14:28:08.990Z,17.80
2023-04-15T14:30:55.251Z,17.70
2023-04-15T14:33:41.832Z,17.70
2023-04-15T14:36:27.783Z,17.60
2023-04-15T14:39:14.454Z,17.50
2023-04-15T14:42:00.532Z,17.40
2023-04-15T14:44:46.678Z,17.40
2023-04-15T14:47:32.449Z,17.30
2023-04-15T14:50:20.423Z,17.30
2023-04-15T14:53:07.045Z,17.20
2023-04-15T14:55:53.625Z,17.20
2023-04-15T14:58:39.826Z,17.20
2023-04-15T15:01:26.238Z,17.20
2023-04-15T15:04:13.224Z,17.20
2023-04-15T15:06:59.679Z,17.20
2023-04-15T15:09:46.139Z,17.20
2023-04-15T15:12:33.284Z,17.20
2023-04-15T15:15:28.947Z,17.20
2023-04-15T15:18:17.145Z,17.20
2023-04-15T15:21:03.464Z,17.20
2023-04-15T15:23:52.759Z,17.20
2023-04-15T15:26:38.375Z,17.20
2023-04-15T15:29:26.023Z,17.20
2023-04-15T15:32:13.503Z,17.20
2023-04-15T15:34:59.757Z,17.20
2023-04-15T15:37:46.161Z,17.10
2023-04-15T15:40:32.418Z,17.10
2023-04-15T15:43:18.691Z,17.10
2023-04-15T15:46:04.713Z,17.10
2023-04-15T15:48:50.918Z,17.10
2023-04-15T15:51:37.196Z,17.10
2023-04-15T15:54:24.178Z,17.10
2023-04-15T15:57:10.698Z,17.10
2023-04-15T16:00:10.210Z,17.10
2023-04-15T16:05:48.132Z,16.90
2023-04-15T16:08:34.820Z,16.90
2023-04-15T16:11:21.261Z,16.90
2023-04-15T16:14:07.239Z,16.90
2023-04-15T16:16:53.722Z,16.80
2023-04-15T16:19:40.492Z,16.80
2023-04-15T16:22:45.455Z,16.80
2023-04-15T16:25:31.553Z,17.00
2023-04-15T16:28:26.346Z,17.00
2023-04-15T16:31:12.803Z,17.00
2023-04-15T16:33:59.037Z,17.00
2023-04-15T16:36:45.371Z,16.80
2023-04-15T16:39:31.497Z,16.80
2023-04-15T16:42:18.271Z,16.90
2023-04-15T16:45:07.562Z,16.90
2023-04-15T16:47:54.396Z,16.90
2023-04-15T16:50:40.687Z,17.00
2023-04-15T16:53:26.283Z,17.00
2023-04-15T16:56:12.223Z,17.00
2023-04-15T16:58:58.547Z,16.90
2023-04-15T17:01:45.018Z,16.90
2023-04-15T17:04:31.774Z,16.90
2023-04-15T17:07:18.804Z,16.90
2023-04-15T17:10:05.251Z,16.90
2023-04-15T17:12:54.219Z,16.90
2023-04-15T17:15:41.203Z,16.90
2023-04-15T17:18:28.201Z,16.90
2023-04-15T17:21:15.309Z,16.80
2023-04-15T17:24:01.849Z,16.80
2023-04-15T17:26:48.359Z,16.80
2023-04-15T17:29:34.311Z,16.70
2023-04-15T17:32:22.755Z,16.70
2023-04-15T17:35:09.270Z,16.70
2023-04-15T17:37:56.135Z,16.60
2023-04-15T17:40:41.826Z,16.60
2023-04-15T17:43:27.790Z,16.50
2023-04-15T17:46:14.630Z,16.50
2023-04-15T17:49:00.658Z,16.40
2023-04-15T17:51:46.965Z,16.40
2023-04-15T17:54:33.177Z,16.30
2023-04-15T17:57:19.043Z,16.30
2023-04-15T18:00:06.570Z,16.30
2023-04-15T18:02:58.728Z,16.30
2023-04-15T18:05:44.831Z,16.30
2023-04-15T18:08:31.599Z,16.20
2023-04-15T18:11:20.931Z,16.20
2023-04-15T18:14:07.870Z,16.20
2023-04-15T18:16:54.269Z,16.20
2023-04-15T18:19:40.873Z,16.20
2023-04-15T18:22:26.910Z,16.20
2023-04-15T18:25:12.872Z,16.20
2023-04-15T18:27:59.256Z,16.20
2023-04-15T18:30:46.212Z,16.10
2023-04-15T18:33:33.652Z,16.10
2023-04-15T18:36:19.360Z,16.10
2023-04-15T18:39:06.288Z,16.10
2023-04-15T18:41:52.995Z,16.00
2023-04-15T18:44:38.606Z,16.00
2023-04-15T18:47:27.219Z,16.00
2023-04-15T18:50:13.396Z,16.00
2023-04-15T18:52:59.216Z,16.00
2023-04-15T18:55:48.119Z,15.90
2023-04-15T18:59:10.289Z,15.90
2023-04-15T19:01:41.496Z,15.90
2023-04-15T19:04:29.484Z,15.90
2023-04-15T19:07:15.532Z,15.90
2023-04-15T19:10:02.463Z,15.90
2023-04-15T19:12:48.357Z,15.90
2023-04-15T19:15:34.179Z,15.80
2023-04-15T19:18:21.052Z,15.80
2023-04-15T19:21:06.854Z,15.80
2023-04-15T19:23:53.280Z,15.80
2023-04-15T19:26:39.710Z,15.80
2023-04-15T19:29:26.210Z,15.80
2023-04-15T19:32:14.425Z,15.80
2023-04-15T19:35:00.508Z,15.80
2023-04-15T19:37:47.919Z,15.80
2023-04-15T19:40:33.497Z,15.80
2023-04-15T19:43:19.629Z,15.70
2023-04-15T19:46:05.416Z,15.70
2023-04-15T19:48:52.909Z,15.70
2023-04-15T19:51:39.365Z,15.70
2023-04-15T19:54:25.222Z,15.70
2023-04-15T19:57:11.813Z,15.70
2023-04-15T19:59:58.051Z,15.70
2023-04-15T20:02:43.861Z,15.70
2023-04-15T20:05:30.042Z,15.60
2023-04-15T20:08:15.969Z,15.60
2023-04-15T20:11:01.883Z,15.60
2023-04-15T20:13:48.330Z,15.60
2023-04-15T20:16:38.360Z,15.60
2023-04-15T20:19:24.415Z,15.60
2023-04-15T20:22:10.290Z,15.60
2023-04-15T20:24:56.649Z,15.50
2023-04-15T20:27:42.218Z,15.50
2023-04-15T20:30:29.330Z,15.50
2023-04-15T20:33:15.687Z,15.50
2023-04-15T20:36:03.073Z,15.50
2023-04-15T20:38:48.967Z,15.50
2023-04-15T20:41:34.518Z,15.50
2023-04-15T20:44:20.733Z,15.50
2023-04-15T20:47:07.719Z,15.40
2023-04-15T20:49:54.507Z,15.40
2023-04-15T20:52:40.880Z,15.50
2023-04-15T20:55:29.605Z,15.40
2023-04-15T20:58:16.577Z,15.50
2023-04-15T21:01:02.406Z,15.50
2023-04-15T21:03:49.174Z,15.40
2023-04-15T21:06:35.776Z,15.40
2023-04-15T21:09:22.167Z,15.40
2023-04-15T21:12:08.820Z,15.40
2023-04-15T21:14:55.506Z,15.40
2023-04-15T21:17:42.023Z,15.40
2023-04-15T21:20:28.260Z,15.40
2023-04-15T21:23:14.801Z,15.30
2023-04-15T21:26:00.946Z,15.30
2023-04-15T21:28:47.364Z,15.30
2023-04-15T21:31:32.808Z,15.30
2023-04-15T21:34:19.323Z,15.30
2023-04-15T21:37:06.162Z,15.30
2023-04-15T21:39:52.381Z,15.30
2023-04-15T21:42:38.208Z,15.20
2023-04-15T21:45:23.824Z,15.20
2023-04-15T21:48:11.190Z,15.20
2023-04-15T21:51:02.028Z,15.10
2023-04-15T21:53:48.468Z,15.00
2023-04-15T21:56:34.624Z,14.90
2023-04-15T21:59:20.817Z,14.90
2023-04-15T22:02:07.240Z,14.90
2023-04-15T22:04:53.640Z,14.80
2023-04-15T22:07:40.321Z,14.80
2023-04-15T22:10:26.662Z,14.80
2023-04-15T22:13:13.387Z,14.80
2023-04-15T22:15:59.297Z,14.80
2023-04-15T22:18:45.820Z,14.80
2023-04-15T22:21:32.569Z,14.90
2023-04-15T22:24:35.020Z,14.90
2023-04-15T22:27:23.718Z,14.80
2023-04-15T22:30:11.040Z,14.80
2023-04-15T22:32:57.121Z,14.80
2023-04-15T22:35:43.176Z,14.80
2023-04-15T22:38:28.766Z,14.80
2023-04-15T22:41:14.820Z,14.80
2023-04-15T22:44:00.916Z,14.80
2023-04-15T22:46:46.311Z,15.00
2023-04-15T22:49:32.298Z,15.10
2023-04-15T22:52:29.463Z,15.10
2023-04-15T22:55:19.513Z,15.10
2023-04-15T22:58:05.566Z,15.10
2023-04-15T23:00:51.818Z,15.10
2023-04-15T23:03:55.829Z,15.10
2023-04-15T23:06:44.435Z,15.10
2023-04-15T23:09:30.747Z,15.10
2023-04-15T23:12:16.749Z,15.10
2023-04-15T23:15:03.814Z,15.20
2023-04-15T23:17:49.707Z,15.10
2023-04-15T23:20:35.910Z,15.10
2023-04-15T23:23:21.743Z,15.10
2023-04-15T23:26:08.040Z,15.00
2023-04-15T23:28:54.478Z,15.00
2023-04-15T23:31:41.787Z,15.00
2023-04-15T23:34:27.361Z,15.00
2023-04-15T23:37:13.035Z,14.90
2023-04-15T23:39:59.377Z,14.90
2023-04-15T23:42:45.268Z,14.90
2023-04-15T23:45:31.219Z,14.90
2023-04-15T23:48:18.143Z,14.90
2023-04-15T23:51:05.110Z,14.90
2023-04-15T23:53:52.468Z,14.90
2023-04-15T23:56:39.135Z,14.90
2023-04-15T23:59:25.371Z,14.90
